Time;durP1;ratioP1;P1;durP2;ratioP2;P2;SDS_P1;SDS_P2;PMS_P1;PMS_P2;Temp;Humidity;BMP_temperature;BMP_pressure;BME280_temperature;BME280_humidity;BME280_pressure;Samples;Min_cycle;Max_cycle;Signal;HPM_P1;HPM_P2
2021/07/26 00:01:17;;;;;;;10.05;6.57;;;;;;;;;;5014086;28;20030;-68
2021/07/26 00:03:43;;;;;;;8.55;5.90;;;;;;;;;;5014165;28;20042;-67
2021/07/26 00:06:09;;;;;;;8.45;6.20;;;;;;;;;;5014038;28;20464;-68
2021/07/26 00:08:36;;;;;;;13.00;6.97;;;;;;;;;;5014076;28;20101;-68
2021/07/26 00:11:06;;;;;;;9.90;6.30;;;;;;;;;;5014019;28;20030;-68
2021/07/26 00:13:32;;;;;;;10.85;6.45;;;;;;;;;;5013915;28;20022;-67
2021/07/26 00:15:59;;;;;;;9.02;6.30;;;;;;;;;;5030884;28;20354;-68
2021/07/26 00:18:27;;;;;;;9.15;6.55;;;;;;;;;;5033418;28;20022;-67
2021/07/26 00:20:53;;;;;;;8.90;6.10;;;;;;;;;;5033389;28;20051;-67
2021/07/26 00:23:19;;;;;;;8.88;6.63;;;;;;;;;;5033407;28;20025;-68
2021/07/26 00:25:46;;;;;;;9.10;6.45;;;;;;;;;;5033432;28;20469;-67
2021/07/26 00:28:12;;;;;;;9.23;5.88;;;;;;;;;;5033373;28;20025;-67
2021/07/26 00:30:38;;;;;;;9.50;6.80;;;;;;;;;;5033291;28;20021;-68
2021/07/26 00:33:52;;;;;;;9.32;6.50;;;;;;;;;;5032929;28;20025;-69
2021/07/26 00:36:09;;;;;;;9.57;6.28;;;;;;;;;;5030680;28;20040;-68
2021/07/26 00:38:35;;;;;;;8.80;6.55;;;;;;;;;;5033128;28;20044;-68
2021/07/26 00:41:01;;;;;;;12.38;6.70;;;;;;;;;;5033041;28;20037;-69
2021/07/26 00:43:27;;;;;;;8.63;5.90;;;;;;;;;;5033132;28;20021;-69
2021/07/26 00:45:53;;;;;;;9.32;6.40;;;;;;;;;;5032642;28;20490;-69
2021/07/26 00:48:19;;;;;;;6.93;5.80;;;;;;;;;;5032970;28;20480;-68
2021/07/26 00:50:45;;;;;;;10.30;6.93;;;;;;;;;;5033006;28;20045;-68
2021/07/26 00:53:11;;;;;;;9.75;7.10;;;;;;;;;;5032915;28;20025;-69
2021/07/26 00:55:40;;;;;;;10.02;7.55;;;;;;;;;;5031961;28;20113;-69
2021/07/26 00:58:06;;;;;;;8.73;5.95;;;;;;;;;;5032432;28;20048;-68
2021/07/26 01:00:32;;;;;;;11.25;6.32;;;;;;;;;;5032684;28;20026;-68
2021/07/26 01:02:58;;;;;;;6.75;5.85;;;;;;;;;;5032751;28;20096;-68
2021/07/26 01:05:24;;;;;;;10.10;6.53;;;;;;;;;;5032759;28;20029;-68
2021/07/26 01:07:50;;;;;;;9.70;6.43;;;;;;;;;;5032743;28;20117;-68
2021/07/26 01:10:16;;;;;;;10.55;6.85;;;;;;;;;;5032475;28;20655;-68
2021/07/26 01:12:42;;;;;;;7.97;6.30;;;;;;;;;;5032653;28;20052;-68
2021/07/26 01:15:09;;;;;;;9.73;7.40;;;;;;;;;;5032487;28;20040;-69
2021/07/26 01:17:53;;;;;;;8.15;6.47;;;;;;;;;;5032504;28;20116;-68
2021/07/26 01:20:19;;;;;;;8.80;6.03;;;;;;;;;;5032575;28;20030;-69
2021/07/26 01:22:46;;;;;;;8.75;6.40;;;;;;;;;;5032428;28;20025;-69
2021/07/26 01:25:12;;;;;;;7.50;5.28;;;;;;;;;;5032317;28;20032;-68
2021/07/26 01:27:38;;;;;;;8.85;6.18;;;;;;;;;;5032182;28;20100;-68
2021/07/26 01:30:04;;;;;;;7.43;6.07;;;;;;;;;;5032457;28;20034;-68
2021/07/26 01:32:30;;;;;;;9.18;6.25;;;;;;;;;;5032393;28;20026;-69
2021/07/26 01:34:56;;;;;;;9.07;6.65;;;;;;;;;;5032324;28;20032;-68
2021/07/26 01:37:22;;;;;;;9.30;6.70;;;;;;;;;;5017163;28;20022;-69
2021/07/26 01:39:48;;;;;;;9.45;6.10;;;;;;;;;;5012449;28;20484;-68
2021/07/26 01:42:14;;;;;;;9.98;6.47;;;;;;;;;;5012448;28;20109;-68
2021/07/26 01:44:40;;;;;;;8.63;6.55;;;;;;;;;;5012404;28;20038;-68
2021/07/26 01:47:08;;;;;;;10.05;6.75;;;;;;;;;;5016166;28;20149;-68
2021/07/26 01:49:55;;;;;;;11.98;7.15;;;;;;;;;;5015289;28;20485;-68
2021/07/26 01:52:22;;;;;;;9.88;6.70;;;;;;;;;;5016478;28;20026;-68
2021/07/26 01:54:48;;;;;;;9.88;6.85;;;;;;;;;;5016759;28;20510;-68
2021/07/26 01:57:15;;;;;;;9.63;6.72;;;;;;;;;;5016471;28;20029;-68
2021/07/26 01:59:41;;;;;;;10.02;7.20;;;;;;;;;;5016588;28;20056;-68
2021/07/26 02:02:07;;;;;;;10.07;6.47;;;;;;;;;;5016363;28;20037;-68
2021/07/26 02:04:33;;;;;;;9.73;6.82;;;;;;;;;;5016541;28;20477;-68
2021/07/26 02:06:59;;;;;;;8.55;6.82;;;;;;;;;;5016719;28;20103;-68
2021/07/26 02:09:25;;;;;;;10.20;7.63;;;;;;;;;;5016673;28;20060;-68
2021/07/26 02:11:51;;;;;;;10.35;7.22;;;;;;;;;;5019031;28;20026;-68
2021/07/26 02:14:17;;;;;;;12.88;6.70;;;;;;;;;;5029691;28;20077;-68
2021/07/26 02:16:43;;;;;;;9.45;6.95;;;;;;;;;;5044745;28;20447;-68
2021/07/26 02:19:09;;;;;;;10.23;7.32;;;;;;;;;;5036140;28;20029;-68
2021/07/26 02:21:36;;;;;;;10.23;7.22;;;;;;;;;;5035769;28;20037;-68
2021/07/26 02:24:02;;;;;;;8.90;6.55;;;;;;;;;;5035640;28;20049;-67
2021/07/26 02:26:28;;;;;;;9.40;7.68;;;;;;;;;;5035764;28;20029;-68
2021/07/26 02:28:54;;;;;;;7.80;6.45;;;;;;;;;;5035657;28;20578;-68
2021/07/26 02:31:20;;;;;;;9.20;6.72;;;;;;;;;;5035774;28;20416;-69
2021/07/26 02:33:46;;;;;;;10.50;7.30;;;;;;;;;;5035616;28;20025;-68
2021/07/26 02:36:13;;;;;;;14.18;7.40;;;;;;;;;;5030129;28;20144;-68
2021/07/26 02:38:39;;;;;;;11.43;7.95;;;;;;;;;;5015534;28;20042;-68
2021/07/26 02:41:12;;;;;;;12.55;7.60;;;;;;;;;;5015510;28;20029;-68
2021/07/26 02:43:38;;;;;;;12.40;7.00;;;;;;;;;;5029861;28;20030;-68
2021/07/26 02:46:06;;;;;;;9.65;7.45;;;;;;;;;;5035074;28;20115;-68
2021/07/26 02:48:38;;;;;;;10.63;6.75;;;;;;;;;;5035370;28;20024;-68
2021/07/26 02:51:05;;;;;;;9.85;6.78;;;;;;;;;;5035180;28;20029;-69
2021/07/26 02:53:31;;;;;;;10.10;6.88;;;;;;;;;;5034964;28;20026;-69
2021/07/26 02:55:57;;;;;;;10.25;7.40;;;;;;;;;;5035086;28;20033;-68
2021/07/26 02:58:23;;;;;;;10.00;7.40;;;;;;;;;;5035039;28;20030;-68
2021/07/26 03:00:49;;;;;;;13.90;7.32;;;;;;;;;;5034972;28;20108;-68
2021/07/26 03:03:16;;;;;;;11.45;7.35;;;;;;;;;;5035028;28;20032;-67
2021/07/26 03:05:42;;;;;;;10.30;7.50;;;;;;;;;;5034976;28;20022;-68
2021/07/26 03:08:08;;;;;;;9.18;6.65;;;;;;;;;;5034814;28;20426;-68
2021/07/26 03:10:34;;;;;;;10.13;7.07;;;;;;;;;;5034930;28;20591;-68
2021/07/26 03:13:00;;;;;;;10.18;7.43;;;;;;;;;;5034780;28;20112;-69
2021/07/26 03:15:26;;;;;;;11.35;7.97;;;;;;;;;;5034721;28;20468;-69
2021/07/26 03:17:52;;;;;;;10.40;6.63;;;;;;;;;;5035020;28;20423;-68
2021/07/26 03:20:19;;;;;;;10.02;7.57;;;;;;;;;;5034309;28;20033;-68
2021/07/26 03:22:54;;;;;;;9.43;6.95;;;;;;;;;;5016692;28;20025;-68
2021/07/26 03:25:20;;;;;;;12.65;7.75;;;;;;;;;;5034697;28;20096;-68
2021/07/26 03:27:50;;;;;;;10.23;7.95;;;;;;;;;;5034547;28;20017;-68
2021/07/26 03:30:17;;;;;;;10.43;7.30;;;;;;;;;;5034578;28;20021;-68
2021/07/26 03:32:43;;;;;;;10.82;7.80;;;;;;;;;;5034504;28;20503;-70
2021/07/26 03:35:09;;;;;;;12.88;7.88;;;;;;;;;;5034286;28;20033;-68
2021/07/26 03:37:35;;;;;;;14.95;8.10;;;;;;;;;;5017417;28;20033;-68
2021/07/26 03:40:02;;;;;;;13.05;8.63;;;;;;;;;;5014660;28;20025;-68
2021/07/26 03:42:28;;;;;;;13.48;7.78;;;;;;;;;;5014426;28;20051;-67
2021/07/26 03:44:57;;;;;;;12.63;7.45;;;;;;;;;;5013023;28;20129;-68
2021/07/26 03:47:24;;;;;;;9.50;7.15;;;;;;;;;;5014387;28;20045;-68
2021/07/26 03:49:50;;;;;;;9.93;7.53;;;;;;;;;;5014447;28;20049;-67
2021/07/26 03:52:16;;;;;;;11.13;8.63;;;;;;;;;;5014295;28;20032;-68
2021/07/26 03:54:42;;;;;;;10.82;7.55;;;;;;;;;;5014326;28;20105;-69
2021/07/26 03:57:08;;;;;;;12.77;8.40;;;;;;;;;;5014247;28;20511;-68
2021/07/26 03:59:34;;;;;;;13.10;8.38;;;;;;;;;;5014126;28;20030;-68
2021/07/26 04:02:01;;;;;;;11.70;8.30;;;;;;;;;;5014018;28;20109;-68
2021/07/26 04:04:27;;;;;;;9.90;7.50;;;;;;;;;;5014010;28;20022;-68
2021/07/26 04:07:00;;;;;;;13.05;8.18;;;;;;;;;;5014303;28;20381;-68
2021/07/26 04:09:31;;;;;;;12.10;7.72;;;;;;;;;;5013501;28;20018;-68
2021/07/26 04:12:04;;;;;;;10.20;6.95;;;;;;;;;;5014248;28;20033;-68
2021/07/26 04:14:35;;;;;;;11.68;7.47;;;;;;;;;;5019093;28;20053;-68
2021/07/26 04:17:01;;;;;;;9.88;7.38;;;;;;;;;;5015852;28;20424;-68
2021/07/26 04:19:27;;;;;;;10.93;7.72;;;;;;;;;;5033528;28;20064;-68
2021/07/26 04:21:59;;;;;;;10.43;7.13;;;;;;;;;;5033541;28;20026;-68
2021/07/26 04:24:25;;;;;;;13.88;8.15;;;;;;;;;;5033539;28;20613;-68
2021/07/26 04:26:51;;;;;;;11.52;7.72;;;;;;;;;;5033407;28;20018;-68
2021/07/26 04:29:17;;;;;;;10.70;7.80;;;;;;;;;;5033484;28;20028;-68
2021/07/26 04:31:43;;;;;;;12.52;7.82;;;;;;;;;;5033070;28;20029;-68
2021/07/26 04:34:11;;;;;;;10.95;7.93;;;;;;;;;;5033377;28;20025;-66
2021/07/26 04:36:37;;;;;;;11.30;8.15;;;;;;;;;;5024306;28;20511;-67
2021/07/26 04:39:03;;;;;;;11.65;8.38;;;;;;;;;;5013672;28;20026;-68
2021/07/26 04:41:29;;;;;;;13.07;8.50;;;;;;;;;;5013491;28;20030;-68
2021/07/26 04:43:55;;;;;;;12.05;7.30;;;;;;;;;;5031130;28;20032;-68
2021/07/26 04:46:21;;;;;;;13.38;8.45;;;;;;;;;;4995066;28;20413;-68
2021/07/26 04:48:47;;;;;;;12.70;7.80;;;;;;;;;;4993638;28;20042;-68
2021/07/26 04:51:14;;;;;;;11.52;7.20;;;;;;;;;;4993713;28;20030;-68
2021/07/26 04:53:40;;;;;;;11.93;7.65;;;;;;;;;;4993779;28;20105;-68
2021/07/26 04:56:06;;;;;;;10.70;7.35;;;;;;;;;;4993796;28;20030;-68
2021/07/26 04:58:33;;;;;;;13.57;8.43;;;;;;;;;;4993633;28;20034;-68
2021/07/26 05:01:00;;;;;;;11.32;7.68;;;;;;;;;;4993385;28;20500;-68
2021/07/26 05:03:26;;;;;;;12.77;7.70;;;;;;;;;;4993383;28;20026;-67
2021/07/26 05:05:52;;;;;;;15.05;8.13;;;;;;;;;;4993547;28;20032;-68
2021/07/26 05:08:18;;;;;;;11.75;7.85;;;;;;;;;;4993415;28;20031;-68
2021/07/26 05:10:47;;;;;;;11.57;6.95;;;;;;;;;;4993423;28;20175;-67
2021/07/26 05:13:14;;;;;;;10.57;7.28;;;;;;;;;;4993648;28;20033;-69
2021/07/26 05:15:40;;;;;;;11.63;7.82;;;;;;;;;;4993483;28;20354;-68
2021/07/26 05:18:06;;;;;;;10.98;7.57;;;;;;;;;;4993062;28;20385;-68
2021/07/26 05:20:32;;;;;;;12.10;8.23;;;;;;;;;;4992398;28;20026;-68
2021/07/26 05:22:58;;;;;;;13.45;8.15;;;;;;;;;;4993110;28;20030;-68
2021/07/26 05:25:24;;;;;;;10.90;7.03;;;;;;;;;;4993081;28;20022;-68
2021/07/26 05:27:50;;;;;;;10.68;7.55;;;;;;;;;;4993484;28;20088;-69
2021/07/26 05:30:17;;;;;;;11.23;7.68;;;;;;;;;;4993059;28;20050;-68
2021/07/26 05:32:43;;;;;;;10.60;7.35;;;;;;;;;;4992910;28;20029;-68
2021/07/26 05:35:09;;;;;;;10.95;7.35;;;;;;;;;;4993012;28;20038;-68
2021/07/26 05:37:35;;;;;;;11.48;7.65;;;;;;;;;;4976450;28;20501;-68
2021/07/26 05:40:01;;;;;;;13.55;9.13;;;;;;;;;;4973858;28;20081;-69
2021/07/26 05:42:27;;;;;;;11.95;7.13;;;;;;;;;;4985336;28;20037;-68
2021/07/26 05:44:55;;;;;;;11.02;7.53;;;;;;;;;;5002102;28;20681;-67
2021/07/26 05:47:21;;;;;;;8.77;7.63;;;;;;;;;;5022312;28;20123;-68
2021/07/26 05:49:47;;;;;;;10.90;7.78;;;;;;;;;;5031822;28;20049;-68
2021/07/26 05:52:14;;;;;;;11.30;7.63;;;;;;;;;;5032686;28;20033;-68
2021/07/26 05:54:40;;;;;;;12.10;6.75;;;;;;;;;;5032270;28;20021;-68
2021/07/26 05:57:14;;;;;;;15.02;8.63;;;;;;;;;;5031631;28;20496;-68
2021/07/26 05:59:40;;;;;;;12.02;8.48;;;;;;;;;;5032252;28;20185;-69
2021/07/26 06:02:06;;;;;;;11.00;7.68;;;;;;;;;;5031997;28;20076;-68
2021/07/26 06:04:32;;;;;;;10.55;7.18;;;;;;;;;;5032065;28;20083;-67
2021/07/26 06:07:00;;;;;;;10.82;7.85;;;;;;;;;;5031274;28;20477;-68
2021/07/26 06:09:26;;;;;;;12.35;7.45;;;;;;;;;;5032010;28;20052;-69
2021/07/26 06:11:53;;;;;;;11.80;7.50;;;;;;;;;;5031089;28;20053;-69
2021/07/26 06:14:19;;;;;;;12.27;8.07;;;;;;;;;;5031425;28;20026;-69
2021/07/26 06:16:50;;;;;;;11.88;8.05;;;;;;;;;;5030777;28;20018;-68
2021/07/26 06:19:16;;;;;;;13.40;7.20;;;;;;;;;;5030809;28;20079;-69
2021/07/26 06:21:49;;;;;;;12.00;8.07;;;;;;;;;;5031398;28;20034;-69
2021/07/26 06:24:16;;;;;;;12.10;8.15;;;;;;;;;;5030958;28;20021;-68
2021/07/26 06:26:43;;;;;;;10.63;7.10;;;;;;;;;;5031890;28;20017;-68
2021/07/26 06:29:09;;;;;;;11.77;7.55;;;;;;;;;;5031741;28;20053;-68
2021/07/26 06:31:36;;;;;;;12.70;7.57;;;;;;;;;;5033071;28;20064;-68
2021/07/26 06:34:02;;;;;;;15.18;8.52;;;;;;;;;;5035858;28;20104;-68
2021/07/26 06:36:28;;;;;;;16.02;9.32;;;;;;;;;;5026548;28;20026;-69
2021/07/26 06:38:54;;;;;;;11.75;7.75;;;;;;;;;;5015660;28;20096;-68
2021/07/26 06:41:21;;;;;;;14.73;9.13;;;;;;;;;;5015876;28;20380;-67
2021/07/26 06:43:47;;;;;;;15.57;9.32;;;;;;;;;;5015688;28;20022;-69
2021/07/26 06:46:14;;;;;;;12.52;8.60;;;;;;;;;;5015481;28;20054;-68
2021/07/26 06:48:40;;;;;;;12.07;8.35;;;;;;;;;;5015611;28;20404;-68
2021/07/26 06:51:06;;;;;;;14.00;7.95;;;;;;;;;;5015614;28;20030;-68
2021/07/26 06:53:35;;;;;;;13.32;8.15;;;;;;;;;;5015453;28;20080;-68
2021/07/26 06:56:06;;;;;;;16.05;9.05;;;;;;;;;;5030714;28;20566;-68
2021/07/26 06:58:32;;;;;;;16.80;9.60;;;;;;;;;;5024401;28;20028;-71
2021/07/26 07:01:05;;;;;;;11.80;8.15;;;;;;;;;;5030765;28;20898;-70
2021/07/26 07:03:31;;;;;;;15.60;9.20;;;;;;;;;;5021247;28;20045;-68
2021/07/26 07:06:04;;;;;;;13.25;7.85;;;;;;;;;;5028925;28;20036;-68
2021/07/26 07:08:30;;;;;;;17.38;9.02;;;;;;;;;;5022588;28;20036;-67
2021/07/26 07:11:04;;;;;;;12.07;7.93;;;;;;;;;;5027469;28;20105;-68
2021/07/26 07:13:31;;;;;;;11.38;8.20;;;;;;;;;;5018420;28;20495;-67
2021/07/26 07:15:57;;;;;;;14.88;8.13;;;;;;;;;;5027701;28;20036;-67
2021/07/26 07:18:23;;;;;;;13.15;8.40;;;;;;;;;;5021350;28;20030;-67
2021/07/26 07:20:53;;;;;;;10.75;7.90;;;;;;;;;;5011604;28;20034;-66
2021/07/26 07:23:19;;;;;;;9.77;7.97;;;;;;;;;;5026128;28;20104;-68
2021/07/26 07:25:45;;;;;;;8.90;6.55;;;;;;;;;;5030822;28;20049;-68
2021/07/26 07:28:11;;;;;;;9.40;6.72;;;;;;;;;;5030993;28;20026;-68
2021/07/26 07:30:37;;;;;;;9.88;7.18;;;;;;;;;;5031383;28;20433;-68
2021/07/26 07:33:04;;;;;;;9.45;6.82;;;;;;;;;;5018477;28;20113;-69
2021/07/26 07:35:30;;;;;;;9.27;6.75;;;;;;;;;;5033142;28;20120;-69
2021/07/26 07:37:56;;;;;;;11.85;7.13;;;;;;;;;;5028343;28;20029;-67
2021/07/26 07:40:23;;;;;;;9.00;7.35;;;;;;;;;;5029894;28;20061;-68
2021/07/26 07:42:50;;;;;;;10.45;7.60;;;;;;;;;;5019085;28;20487;-68
2021/07/26 07:45:16;;;;;;;9.13;7.70;;;;;;;;;;5025167;28;20041;-68
2021/07/26 07:47:42;;;;;;;11.50;7.53;;;;;;;;;;5012816;28;20034;-68
2021/07/26 07:50:11;;;;;;;10.75;6.95;;;;;;;;;;5028542;28;20028;-67
2021/07/26 07:52:38;;;;;;;9.73;7.32;;;;;;;;;;5016434;28;20060;-67
2021/07/26 07:55:05;;;;;;;16.30;8.93;;;;;;;;;;5023306;28;20567;-67
2021/07/26 07:57:32;;;;;;;12.27;8.57;;;;;;;;;;5014554;28;20061;-68
2021/07/26 07:59:58;;;;;;;12.52;9.18;;;;;;;;;;5027228;28;20104;-67
2021/07/26 08:02:24;;;;;;;13.82;8.35;;;;;;;;;;5026301;28;20025;-68
2021/07/26 08:04:53;;;;;;;11.00;7.28;;;;;;;;;;5025911;28;20033;-68
2021/07/26 08:07:19;;;;;;;11.82;7.63;;;;;;;;;;5021570;28;20033;-68
2021/07/26 08:09:45;;;;;;;11.88;8.02;;;;;;;;;;5027271;28;20567;-68
2021/07/26 08:12:11;;;;;;;10.82;7.97;;;;;;;;;;5026390;28;20064;-67
2021/07/26 08:14:37;;;;;;;11.23;7.95;;;;;;;;;;5023499;28;20037;-68
2021/07/26 08:17:04;;;;;;;11.40;7.13;;;;;;;;;;5010450;28;20392;-68
2021/07/26 08:19:30;;;;;;;9.90;6.95;;;;;;;;;;5027268;28;20084;-68
2021/07/26 08:21:56;;;;;;;10.85;7.30;;;;;;;;;;5021821;28;20481;-68
2021/07/26 08:24:22;;;;;;;8.05;6.35;;;;;;;;;;5020032;28;20578;-68
2021/07/26 08:26:48;;;;;;;9.25;6.22;;;;;;;;;;5022382;28;20053;-67
2021/07/26 08:29:14;;;;;;;10.15;6.65;;;;;;;;;;5028117;28;20037;-68
2021/07/26 08:31:40;;;;;;;10.40;7.15;;;;;;;;;;5018658;28;20037;-67
2021/07/26 08:34:07;;;;;;;12.43;7.78;;;;;;;;;;5023903;28;20030;-67
2021/07/26 08:36:33;;;;;;;13.38;8.20;;;;;;;;;;5015047;28;20788;-68
2021/07/26 08:38:59;;;;;;;11.25;8.30;;;;;;;;;;5023780;28;20044;-66
2021/07/26 08:41:25;;;;;;;11.63;7.97;;;;;;;;;;5027748;28;20030;-67
2021/07/26 08:43:51;;;;;;;11.98;8.32;;;;;;;;;;5023435;28;20144;-66
2021/07/26 08:46:18;;;;;;;14.05;7.82;;;;;;;;;;5025286;28;20508;-66
2021/07/26 08:48:46;;;;;;;12.05;8.68;;;;;;;;;;5013894;28;20079;-67
2021/07/26 08:51:15;;;;;;;14.90;8.70;;;;;;;;;;5024515;28;20038;-67
2021/07/26 08:53:41;;;;;;;13.18;8.60;;;;;;;;;;5000439;28;20377;-66
2021/07/26 08:56:07;;;;;;;11.25;8.10;;;;;;;;;;5017305;28;20036;-67
2021/07/26 08:58:35;;;;;;;10.25;8.15;;;;;;;;;;5024971;28;20079;-67
2021/07/26 09:01:01;;;;;;;10.57;8.30;;;;;;;;;;5021459;28;20033;-67
2021/07/26 09:03:27;;;;;;;14.65;8.90;;;;;;;;;;5023415;28;20574;-67
2021/07/26 09:05:53;;;;;;;13.35;8.75;;;;;;;;;;5021843;28;20040;-66
2021/07/26 09:08:20;;;;;;;12.25;9.13;;;;;;;;;;5017342;28;20443;-67
2021/07/26 09:10:46;;;;;;;13.90;9.13;;;;;;;;;;5022342;28;20026;-67
2021/07/26 09:13:12;;;;;;;14.20;8.52;;;;;;;;;;5027797;28;20029;-68
2021/07/26 09:15:41;;;;;;;14.95;8.20;;;;;;;;;;5027966;28;20029;-68
2021/07/26 09:18:08;;;;;;;12.43;8.38;;;;;;;;;;5024093;28;20037;-68
2021/07/26 09:20:36;;;;;;;16.83;8.30;;;;;;;;;;5018053;28;20033;-67
2021/07/26 09:23:15;;;;;;;16.63;12.57;;;;;;;;;;5027895;28;20411;-68
2021/07/26 09:25:45;;;;;;;14.32;8.45;;;;;;;;;;5027616;28;20033;-67
2021/07/26 09:28:11;;;;;;;15.00;9.35;;;;;;;;;;5015649;28;20033;-67
2021/07/26 09:30:44;;;;;;;10.07;7.93;;;;;;;;;;5021814;28;20034;-68
2021/07/26 09:33:22;;;;;;;10.70;8.07;;;;;;;;;;5014033;28;20037;-68
2021/07/26 09:36:12;;;;;;;14.30;8.60;;;;;;;;;;5023226;28;20029;-67
2021/07/26 09:38:38;;;;;;;10.60;7.82;;;;;;;;;;5020098;28;20065;-67
2021/07/26 09:41:05;;;;;;;12.20;8.68;;;;;;;;;;5027411;28;20115;-68
2021/07/26 09:43:32;;;;;;;13.50;9.23;;;;;;;;;;5024664;28;20025;-68
2021/07/26 09:45:59;;;;;;;14.45;8.93;;;;;;;;;;4997802;28;20657;-68
2021/07/26 09:48:27;;;;;;;13.27;7.90;;;;;;;;;;5025302;28;20032;-67
2021/07/26 09:50:53;;;;;;;13.95;8.35;;;;;;;;;;5021538;28;20392;-68
2021/07/26 09:53:20;;;;;;;14.77;9.05;;;;;;;;;;5019831;28;20036;-67
2021/07/26 09:55:48;;;;;;;11.40;8.13;;;;;;;;;;5026784;28;20037;-68
2021/07/26 09:58:15;;;;;;;14.88;9.00;;;;;;;;;;5024853;28;20030;-67
2021/07/26 10:00:42;;;;;;;12.13;8.30;;;;;;;;;;5012718;28;20108;-67
2021/07/26 10:03:10;;;;;;;15.90;8.98;;;;;;;;;;5007780;28;20038;-68
2021/07/26 10:05:36;;;;;;;12.38;8.80;;;;;;;;;;5017469;28;20034;-68
2021/07/26 10:08:03;;;;;;;12.38;8.77;;;;;;;;;;5019242;28;20039;-68
2021/07/26 10:10:29;;;;;;;12.43;8.73;;;;;;;;;;5014269;28;20054;-69
2021/07/26 10:12:56;;;;;;;12.68;8.98;;;;;;;;;;5016336;28;20037;-66
2021/07/26 10:15:22;;;;;;;12.80;9.15;;;;;;;;;;5027147;28;20034;-67
2021/07/26 10:17:48;;;;;;;12.23;8.35;;;;;;;;;;5030876;28;20037;-68
2021/07/26 10:20:22;;;;;;;11.25;8.60;;;;;;;;;;5030250;28;20751;-68
2021/07/26 10:22:53;;;;;;;12.70;8.07;;;;;;;;;;5023237;28;20035;-67
2021/07/26 10:25:28;;;;;;;11.85;8.02;;;;;;;;;;5020598;28;20033;-69
2021/07/26 10:27:54;;;;;;;;;;;;;;;;;;5005510;28;20839;-68
2021/07/26 10:30:33;;;;;;;15.52;10.50;;;;;;;;;;5030973;28;19920;-68
2021/07/26 10:33:00;;;;;;;12.48;8.75;;;;;;;;;;5029841;28;20116;-67
2021/07/26 10:35:37;;;;;;;13.95;9.02;;;;;;;;;;5018259;28;20033;-67
2021/07/26 10:38:03;;;;;;;10.52;8.80;;;;;;;;;;5026226;28;20040;-68
2021/07/26 10:40:30;;;;;;;14.95;10.32;;;;;;;;;;5030366;28;20112;-69
2021/07/26 10:43:02;;;;;;;17.50;9.25;;;;;;;;;;5017911;28;20164;-70
2021/07/26 10:45:34;;;;;;;16.58;9.18;;;;;;;;;;5016787;28;20578;-68
2021/07/26 10:48:19;;;;;;;16.23;9.98;;;;;;;;;;5023237;28;20050;-69
2021/07/26 10:50:45;;;;;;;15.43;10.43;;;;;;;;;;5026960;28;20021;-69
2021/07/26 10:53:11;;;;;;;18.33;10.30;;;;;;;;;;5022044;28;20044;-69
2021/07/26 10:55:56;;;;;;;18.45;11.13;;;;;;;;;;5029154;28;20045;-68
2021/07/26 10:58:41;;;;;;;13.23;9.75;;;;;;;;;;5014699;28;20033;-67
2021/07/26 11:01:25;;;;;;;14.73;10.13;;;;;;;;;;5023112;28;20396;-68
2021/07/26 11:03:55;;;;;;;15.75;10.55;;;;;;;;;;4996635;28;20053;-68
2021/07/26 11:06:37;;;;;;;19.40;10.05;;;;;;;;;;5010812;28;20072;-68
2021/07/26 11:09:21;;;;;;;14.80;10.15;;;;;;;;;;5029702;28;20072;-67
2021/07/26 11:11:49;;;;;;;16.50;9.87;;;;;;;;;;5017165;28;20029;-69
2021/07/26 11:14:16;;;;;;;17.00;11.57;;;;;;;;;;5010615;28;20314;-67
2021/07/26 11:19:49;;;;;;;17.10;11.38;;;;;;;;;;5006951;28;20103;-68
2021/07/26 11:22:15;;;;;;;15.48;12.05;;;;;;;;;;5019007;28;20439;-68
2021/07/26 11:24:42;;;;;;;15.90;11.07;;;;;;;;;;5011507;28;20034;-71
2021/07/26 11:27:31;;;;;;;13.65;10.02;;;;;;;;;;5019650;28;20500;-67
2021/07/26 11:29:57;;;;;;;14.25;10.40;;;;;;;;;;5015360;28;20072;-70
2021/07/26 11:32:24;;;;;;;14.85;10.13;;;;;;;;;;5024251;28;20057;-68
2021/07/26 11:34:54;;;;;;;14.18;10.60;;;;;;;;;;5008928;28;20166;-69
2021/07/26 11:37:20;;;;;;;16.30;9.68;;;;;;;;;;5020767;28;20043;-69
2021/07/26 11:39:48;;;;;;;17.52;9.65;;;;;;;;;;5018599;28;20025;-69
2021/07/26 11:42:18;;;;;;;15.68;9.10;;;;;;;;;;5014586;28;20070;-69
2021/07/26 11:44:48;;;;;;;14.77;9.57;;;;;;;;;;5018404;28;20049;-68
2021/07/26 11:47:15;;;;;;;15.30;9.85;;;;;;;;;;5023113;28;20496;-71
2021/07/26 11:49:50;;;;;;;15.68;10.55;;;;;;;;;;5027512;28;20037;-69
2021/07/26 11:52:17;;;;;;;15.60;11.80;;;;;;;;;;5015434;28;20041;-71
2021/07/26 11:54:43;;;;;;;15.45;11.15;;;;;;;;;;5012959;28;20065;-70
2021/07/26 11:57:11;;;;;;;16.65;11.07;;;;;;;;;;5011746;28;20040;-69
2021/07/26 11:59:39;;;;;;;17.80;10.20;;;;;;;;;;5013906;28;20030;-69
2021/07/26 12:02:13;;;;;;;15.68;9.40;;;;;;;;;;5028092;28;20025;-70
2021/07/26 12:04:39;;;;;;;15.65;9.57;;;;;;;;;;5029630;28;20091;-70
2021/07/26 12:07:06;;;;;;;15.10;10.07;;;;;;;;;;5030051;28;20448;-70
2021/07/26 12:09:32;;;;;;;18.10;9.25;;;;;;;;;;5030307;28;20431;-70
2021/07/26 12:12:12;;;;;;;12.07;8.43;;;;;;;;;;5030422;28;20040;-70
2021/07/26 12:14:38;;;;;;;14.00;8.05;;;;;;;;;;5030123;28;20025;-69
2021/07/26 12:17:05;;;;;;;13.35;8.10;;;;;;;;;;5030094;28;20056;-70
2021/07/26 12:19:33;;;;;;;11.68;7.82;;;;;;;;;;5030422;28;20037;-70
2021/07/26 12:22:18;;;;;;;16.08;9.45;;;;;;;;;;5030408;28;20063;-69
2021/07/26 12:24:44;;;;;;;11.70;8.27;;;;;;;;;;5030417;28;20027;-69
2021/07/26 12:27:11;;;;;;;11.50;8.45;;;;;;;;;;5030491;28;20037;-68
2021/07/26 12:29:37;;;;;;;12.93;7.82;;;;;;;;;;5029978;28;20415;-69
2021/07/26 12:32:04;;;;;;;11.60;7.80;;;;;;;;;;5030270;28;20037;-70
2021/07/26 12:34:30;;;;;;;13.25;8.15;;;;;;;;;;5030397;28;20555;-69
2021/07/26 12:37:06;;;;;;;10.80;8.18;;;;;;;;;;5028211;28;20466;-69
2021/07/26 12:39:39;;;;;;;13.80;8.70;;;;;;;;;;5029243;28;20021;-70
2021/07/26 12:42:21;;;;;;;10.65;7.93;;;;;;;;;;5029203;28;20108;-70
2021/07/26 12:44:47;;;;;;;12.02;8.20;;;;;;;;;;5029526;28;20045;-70
2021/07/26 12:47:26;;;;;;;17.27;8.32;;;;;;;;;;5029603;28;20488;-70
2021/07/26 12:49:52;;;;;;;9.85;7.07;;;;;;;;;;5029668;28;20052;-69
2021/07/26 12:52:18;;;;;;;14.32;8.50;;;;;;;;;;5028761;28;20083;-70
2021/07/26 12:54:45;;;;;;;11.35;8.45;;;;;;;;;;5029227;28;20539;-70
2021/07/26 12:57:11;;;;;;;10.82;7.47;;;;;;;;;;5017944;28;20108;-71
2021/07/26 12:59:37;;;;;;;14.13;8.80;;;;;;;;;;5026202;28;20037;-69
2021/07/26 13:02:04;;;;;;;11.27;8.70;;;;;;;;;;5020260;28;20044;-70
2021/07/26 13:04:32;;;;;;;10.63;7.60;;;;;;;;;;5029127;28;20387;-70
2021/07/26 13:06:58;;;;;;;13.13;8.35;;;;;;;;;;5027197;28;20034;-70
2021/07/26 13:09:24;;;;;;;14.15;9.48;;;;;;;;;;5029089;28;20029;-71
2021/07/26 13:11:50;;;;;;;13.63;8.90;;;;;;;;;;5028939;28;20040;-70
2021/07/26 13:14:17;;;;;;;10.13;6.80;;;;;;;;;;5028849;28;20402;-68
2021/07/26 13:16:46;;;;;;;10.15;7.63;;;;;;;;;;5028799;28;20055;-68
2021/07/26 13:19:12;;;;;;;10.45;7.53;;;;;;;;;;5026471;28;20034;-69
2021/07/26 13:21:38;;;;;;;14.05;7.35;;;;;;;;;;5023931;28;20038;-68
2021/07/26 13:24:04;;;;;;;8.52;6.82;;;;;;;;;;5019443;28;20033;-68
2021/07/26 13:26:30;;;;;;;14.73;7.68;;;;;;;;;;5014105;28;20065;-69
2021/07/26 13:28:56;;;;;;;11.35;6.88;;;;;;;;;;5011490;28;20033;-69
2021/07/26 13:31:26;;;;;;;14.02;7.35;;;;;;;;;;5027210;28;20068;-67
2021/07/26 13:33:52;;;;;;;10.27;6.47;;;;;;;;;;5013709;28;20061;-70
2021/07/26 13:36:18;;;;;;;12.60;7.60;;;;;;;;;;5020572;28;20040;-69
2021/07/26 13:38:45;;;;;;;10.13;7.25;;;;;;;;;;5026776;28;20392;-68
2021/07/26 13:41:11;;;;;;;10.25;7.25;;;;;;;;;;5015276;28;20478;-69
2021/07/26 13:43:37;;;;;;;9.68;7.13;;;;;;;;;;5013507;28;20036;-69
2021/07/26 13:46:03;;;;;;;10.85;7.10;;;;;;;;;;5021665;28;20073;-70
2021/07/26 13:48:29;;;;;;;11.50;7.25;;;;;;;;;;5017919;28;20040;-68
2021/07/26 13:50:55;;;;;;;9.40;6.50;;;;;;;;;;5017901;28;20030;-71
2021/07/26 13:53:21;;;;;;;11.95;6.93;;;;;;;;;;5020817;28;20077;-68
2021/07/26 13:55:47;;;;;;;9.63;7.68;;;;;;;;;;5017460;28;20049;-69
2021/07/26 13:58:13;;;;;;;12.48;7.68;;;;;;;;;;5019320;28;20084;-69
2021/07/26 14:00:40;;;;;;;15.38;7.30;;;;;;;;;;5018800;28;20036;-70
2021/07/26 14:03:06;;;;;;;10.93;7.25;;;;;;;;;;5026187;28;20488;-69
2021/07/26 14:05:33;;;;;;;10.93;6.45;;;;;;;;;;5024295;28;20029;-68
2021/07/26 14:07:59;;;;;;;10.02;6.88;;;;;;;;;;5014887;28;20069;-68
2021/07/26 14:10:25;;;;;;;11.50;7.00;;;;;;;;;;5023183;28;20091;-69
2021/07/26 14:12:51;;;;;;;11.55;7.47;;;;;;;;;;5024582;28;20033;-68
2021/07/26 14:15:18;;;;;;;12.60;7.85;;;;;;;;;;5012526;28;20042;-67
2021/07/26 14:17:44;;;;;;;13.13;9.07;;;;;;;;;;5015788;28;20119;-68
2021/07/26 14:20:10;;;;;;;12.77;8.23;;;;;;;;;;5018360;28;20030;-67
2021/07/26 14:22:36;;;;;;;12.82;8.52;;;;;;;;;;5009479;28;20068;-67
2021/07/26 14:25:03;;;;;;;11.52;7.57;;;;;;;;;;5021155;28;20035;-69
2021/07/26 14:27:30;;;;;;;11.93;9.10;;;;;;;;;;5013115;28;20271;-69
2021/07/26 14:29:56;;;;;;;13.40;8.25;;;;;;;;;;5018188;28;20555;-66
2021/07/26 14:32:22;;;;;;;11.50;8.52;;;;;;;;;;5023822;28;20042;-68
2021/07/26 14:34:48;;;;;;;12.85;8.50;;;;;;;;;;5026157;28;20168;-68
2021/07/26 14:37:14;;;;;;;13.73;8.00;;;;;;;;;;5023585;28;20435;-67